Time;durP1;ratioP1;P1;durP2;ratioP2;P2;SDS_P1;SDS_P2;PMS_P1;PMS_P2;Temp;Humidity;BMP_temperature;BMP_pressure;BME280_temperature;BME280_humidity;BME280_pressure;Samples;Min_cycle;Max_cycle;Signal;HPM_P1;HPM_P2
2023/01/26 00:02:08;;;;;;;17.65;2.83;;;;;;;6.14;100.00;100509.44;5093618;28;20036;-81
2023/01/26 00:04:34;;;;;;;13.10;2.97;;;;;;;6.33;100.00;100513.09;5094589;28;20055;-80
2023/01/26 00:07:00;;;;;;;9.43;2.88;;;;;;;6.57;100.00;100496.31;5092992;28;20077;-81
2023/01/26 00:09:26;;;;;;;10.93;2.72;;;;;;;6.50;100.00;100513.44;5094725;28;20055;-80
2023/01/26 00:11:51;;;;;;;14.48;2.83;;;;;;;6.34;100.00;100513.91;5092565;28;20027;-81
2023/01/26 00:14:17;;;;;;;13.43;2.88;;;;;;;6.52;100.00;100506.31;5094095;28;20035;-80
2023/01/26 00:16:42;;;;;;;18.88;3.67;;;;;;;6.46;100.00;100509.44;5094296;28;20423;-80
2023/01/26 00:19:08;;;;;;;13.18;3.08;;;;;;;6.34;100.00;100495.66;5094589;28;20024;-81
2023/01/26 00:21:33;;;;;;;9.93;3.65;;;;;;;6.13;100.00;100517.38;5093657;28;20020;-82
2023/01/26 00:23:59;;;;;;;9.40;3.58;;;;;;;6.21;100.00;100501.94;5093699;28;20469;-81
2023/01/26 00:26:26;;;;;;;13.88;2.70;;;;;;;6.17;100.00;100499.69;5093188;28;20028;-81
2023/01/26 00:28:53;;;;;;;10.18;2.70;;;;;;;6.34;100.00;100508.69;5092867;28;20028;-82
2023/01/26 00:31:24;;;;;;;7.00;2.60;;;;;;;6.40;100.00;100524.66;5094373;28;20111;-81
2023/01/26 00:33:52;;;;;;;18.90;2.95;;;;;;;6.52;100.00;100516.75;5095315;28;20058;-85
2023/01/26 00:36:18;;;;;;;14.93;3.03;;;;;;;6.43;100.00;100527.00;5096315;28;20097;-84
2023/01/26 00:38:43;;;;;;;12.80;3.83;;;;;;;6.19;100.00;100500.41;5095724;28;20028;-84
2023/01/26 00:42:05;;;;;;;15.25;3.47;;;;;;;6.25;100.00;100497.25;5094969;28;20023;-84
2023/01/26 00:43:55;;;;;;;13.35;2.78;;;;;;;6.22;100.00;100528.81;5093235;28;20454;-86
2023/01/26 00:46:20;;;;;;;10.55;2.22;;;;;;;6.07;100.00;100521.31;5096141;28;20039;-86
2023/01/26 00:48:46;;;;;;;10.88;2.78;;;;;;;6.38;100.00;100523.97;5096149;28;20119;-85
2023/01/26 00:51:11;;;;;;;11.15;2.97;;;;;;;6.33;100.00;100502.66;5095142;28;20085;-85
2023/01/26 00:53:38;;;;;;;9.02;2.45;;;;;;;6.26;100.00;100517.16;5093958;28;20077;-85
2023/01/26 00:56:04;;;;;;;15.63;2.42;;;;;;;6.08;100.00;100491.69;5095202;28;20028;-87
2023/01/26 00:58:30;;;;;;;11.20;2.55;;;;;;;5.92;100.00;100486.09;5094163;28;20149;-85
2023/01/26 01:00:55;;;;;;;11.60;2.78;;;;;;;6.03;100.00;100500.88;5093787;28;20049;-88
2023/01/26 01:03:21;;;;;;;10.73;2.60;;;;;;;6.26;100.00;100493.69;5076054;28;20067;-86
2023/01/26 01:05:47;;;;;;;11.18;2.13;;;;;;;6.12;100.00;100493.09;5076577;28;20067;-87
2023/01/26 01:08:12;;;;;;;11.27;2.58;;;;;;;6.27;100.00;100495.34;5077166;28;20034;-86
2023/01/26 01:10:38;;;;;;;10.85;2.65;;;;;;;5.99;100.00;100487.22;5093943;28;20115;-84
2023/01/26 01:13:03;;;;;;;16.40;2.85;;;;;;;5.87;100.00;100502.09;5093964;28;20036;-85
2023/01/26 01:15:29;;;;;;;20.20;3.08;;;;;;;6.12;100.00;100511.34;5093713;28;20032;-85
2023/01/26 01:17:55;;;;;;;13.38;2.90;;;;;;;6.05;100.00;100501.56;5094407;28;20363;-85
2023/01/26 01:20:21;;;;;;;15.10;3.85;;;;;;;5.98;100.00;100483.78;5094513;28;20030;-84
2023/01/26 01:22:46;;;;;;;15.77;2.05;;;;;;;6.06;100.00;100495.38;5093376;28;20129;-84
2023/01/26 01:25:12;;;;;;;14.93;2.20;;;;;;;6.02;100.00;100507.84;5093569;28;20024;-86
2023/01/26 01:27:38;;;;;;;14.00;2.40;;;;;;;5.85;100.00;100511.84;5073378;28;20042;-84
2023/01/26 01:30:06;;;;;;;11.18;2.67;;;;;;;5.74;100.00;100504.06;5090312;28;20020;-85
2023/01/26 01:32:38;;;;;;;16.45;3.10;;;;;;;5.99;100.00;100524.56;5094768;28;20038;-84
2023/01/26 01:35:05;;;;;;;10.60;2.33;;;;;;;5.72;100.00;100522.44;5092550;28;20074;-87
2023/01/26 01:37:32;;;;;;;13.82;2.42;;;;;;;5.86;100.00;100503.88;5093428;28;20063;-83
2023/01/26 01:39:58;;;;;;;10.75;2.30;;;;;;;5.87;100.00;100494.28;5093326;28;20082;-83
2023/01/26 01:42:24;;;;;;;13.15;2.70;;;;;;;5.73;100.00;100524.09;5092771;28;20376;-83
2023/01/26 01:45:25;;;;;;;8.38;2.08;;;;;;;6.13;100.00;100541.69;5092194;28;20061;-83
2023/01/26 01:47:54;;;;;;;8.98;2.33;;;;;;;6.01;100.00;100516.63;5091048;28;20112;-83
2023/01/26 01:50:20;;;;;;;7.90;2.38;;;;;;;6.10;100.00;100530.66;5091905;28;20027;-84
2023/01/26 01:52:49;;;;;;;10.50;2.40;;;;;;;5.97;100.00;100536.88;5092750;28;20036;-85
2023/01/26 01:55:15;;;;;;;11.35;2.25;;;;;;;5.82;100.00;100512.91;5074840;28;20086;-83
2023/01/26 01:57:59;;;;;;;10.00;2.17;;;;;;;5.92;100.00;100515.56;5073793;28;20489;-82
2023/01/26 02:00:25;;;;;;;8.93;2.42;;;;;;;5.88;100.00;100513.34;5094123;28;20389;-85
2023/01/26 02:03:13;;;;;;;9.88;2.38;;;;;;;6.02;100.00;100531.31;5093871;28;20215;-82
2023/01/26 02:05:48;;;;;;;10.23;2.55;;;;;;;6.12;100.00;100534.81;5092829;28;20556;-84
2023/01/26 02:08:17;;;;;;;8.48;2.20;;;;;;;5.82;100.00;100518.13;5093876;28;20043;-84
2023/01/26 02:10:46;;;;;;;10.93;2.08;;;;;;;5.95;100.00;100532.75;5092684;28;20209;-83
2023/01/26 02:13:12;;;;;;;10.07;2.03;;;;;;;5.89;100.00;100517.59;5089012;28;20117;-85
2023/01/26 02:15:38;;;;;;;9.00;1.70;;;;;;;6.01;100.00;100527.03;5092942;28;20112;-84
2023/01/26 02:18:04;;;;;;;10.35;2.03;;;;;;;5.97;100.00;100542.06;5076040;28;20651;-85
2023/01/26 02:20:54;;;;;;;6.80;2.08;;;;;;;6.30;100.00;100531.63;5092643;28;20039;-84
2023/01/26 02:23:44;;;;;;;6.38;2.60;;;;;;;6.08;100.00;100543.81;5091798;28;20032;-84
2023/01/26 02:26:17;;;;;;;9.15;2.08;;;;;;;6.03;100.00;100530.34;5092311;28;20036;-84
2023/01/26 02:28:44;;;;;;;12.93;2.13;;;;;;;5.92;100.00;100517.38;5094105;28;20024;-85
2023/01/26 02:31:11;;;;;;;5.60;1.65;;;;;;;5.91;100.00;100513.13;5094007;28;20491;-84
2023/01/26 02:33:38;;;;;;;8.40;1.98;;;;;;;5.90;100.00;100514.88;5092546;28;20031;-84
2023/01/26 02:36:05;;;;;;;5.78;2.08;;;;;;;5.94;100.00;100478.97;5093771;28;20028;-84
2023/01/26 02:38:43;;;;;;;7.72;2.00;;;;;;;6.11;100.00;100507.09;5092260;28;20119;-85
2023/01/26 02:42:37;;;;;;;5.57;1.48;;;;;;;6.03;100.00;100514.72;5088706;28;20028;-86
2023/01/26 02:44:03;;;;;;;;;;;;;;;5.99;100.00;100545.41;5093355;28;20517;-85
2023/01/26 02:46:31;;;;;;;8.30;1.55;;;;;;;5.96;100.00;100537.00;5075845;28;19915;-86
2023/01/26 02:51:41;;;;;;;8.95;1.55;;;;;;;6.05;100.00;100559.72;5093515;28;20439;-87
2023/01/26 02:54:08;;;;;;;8.07;1.73;;;;;;;6.27;100.00;100524.88;5092487;28;20524;-86
2023/01/26 02:56:38;;;;;;;9.70;1.95;;;;;;;6.35;100.00;100526.81;5093846;28;20051;-86
2023/01/26 02:59:05;;;;;;;8.07;1.63;;;;;;;6.29;100.00;100524.75;5092068;28;20139;-85
2023/01/26 03:01:31;;;;;;;5.68;1.45;;;;;;;6.64;100.00;100540.97;5071489;28;20029;-85
2023/01/26 03:03:56;;;;;;;7.43;1.38;;;;;;;6.43;100.00;100521.78;5085897;28;20485;-90
2023/01/26 03:06:21;;;;;;;5.45;1.48;;;;;;;6.70;100.00;100530.81;5073804;28;20066;-83
2023/01/26 03:08:48;;;;;;;11.73;2.83;;;;;;;6.51;100.00;100512.50;5075931;28;20024;-87
2023/01/26 03:11:13;;;;;;;5.90;1.73;;;;;;;6.62;100.00;100529.81;5093807;28;20496;-88
2023/01/26 03:13:41;;;;;;;8.07;1.80;;;;;;;6.72;100.00;100513.25;5092166;28;20028;-84
2023/01/26 03:16:08;;;;;;;13.98;2.35;;;;;;;7.08;100.00;100512.78;5092114;28;20050;-83
2023/01/26 03:29:33;;;;;;;9.15;1.67;;;;;;;6.99;100.00;100553.56;5087005;28;20055;-80
2023/01/26 03:31:59;;;;;;;6.45;1.70;;;;;;;7.19;100.00;100553.59;5091882;28;20060;-85
2023/01/26 03:34:25;;;;;;;7.70;1.90;;;;;;;7.11;100.00;100529.97;5093102;28;20115;-82
2023/01/26 03:36:51;;;;;;;7.03;1.58;;;;;;;7.34;100.00;100551.41;5092919;28;20032;-82
2023/01/26 03:58:30;;;;;;;11.05;1.90;;;;;;;7.22;100.00;100548.09;5092903;28;20109;-84
2023/01/26 04:00:56;;;;;;;6.75;1.85;;;;;;;7.12;100.00;100549.88;5071206;28;20024;-83
2023/01/26 04:08:52;;;;;;;8.80;1.55;;;;;;;6.96;100.00;100542.56;5092937;28;20563;-84
2023/01/26 04:11:17;;;;;;;4.35;1.40;;;;;;;7.22;100.00;100537.66;5091795;28;20024;-84
2023/01/26 04:22:09;;;;;;;7.72;1.45;;;;;;;7.26;100.00;100570.38;5096558;28;20045;-84
2023/01/26 04:24:34;;;;;;;7.90;1.45;;;;;;;7.15;100.00;100573.13;5096234;28;20028;-83
2023/01/26 04:27:00;;;;;;;4.50;1.67;;;;;;;7.29;100.00;100582.34;5076604;28;20032;-83
2023/01/26 04:29:27;;;;;;;4.32;1.52;;;;;;;7.38;100.00;100570.28;5094571;28;20039;-83
2023/01/26 04:31:52;;;;;;;6.97;1.50;;;;;;;7.27;100.00;100561.59;5096504;28;20396;-85
2023/01/26 04:34:22;;;;;;;5.72;1.58;;;;;;;7.37;100.00;100553.78;5096037;28;20028;-85
2023/01/26 04:36:49;;;;;;;8.32;1.83;;;;;;;7.37;100.00;100571.22;5094799;28;20036;-85
2023/01/26 04:39:14;;;;;;;7.13;1.75;;;;;;;7.38;100.00;100568.50;5094751;28;20038;-84
2023/01/26 04:41:40;;;;;;;9.43;1.60;;;;;;;7.28;100.00;100560.66;5094317;28;20075;-86
2023/01/26 04:44:05;;;;;;;7.00;1.42;;;;;;;7.62;100.00;100584.72;5095974;28;20032;-85
2023/01/26 04:46:32;;;;;;;5.13;1.45;;;;;;;7.74;100.00;100577.56;5094946;28;20024;-86
2023/01/26 04:48:57;;;;;;;4.40;1.33;;;;;;;7.69;100.00;100559.72;5067320;28;20089;-84
2023/01/26 04:51:23;;;;;;;9.50;2.03;;;;;;;7.39;100.00;100558.84;5075984;28;20078;-84
2023/01/26 04:53:49;;;;;;;5.57;1.65;;;;;;;7.52;100.00;100569.03;5091057;28;20031;-87
2023/01/26 04:56:30;;;;;;;4.90;1.45;;;;;;;7.26;100.00;100580.81;5095639;28;20032;-84
2023/01/26 04:58:58;;;;;;;5.88;1.65;;;;;;;7.38;100.00;100604.22;5095174;28;20051;-85
2023/01/26 05:01:24;;;;;;;11.85;1.92;;;;;;;7.21;100.00;100575.19;5077248;28;20036;-87
2023/01/26 05:03:50;;;;;;;3.83;1.42;;;;;;;7.17;100.00;100586.03;5077364;28;20036;-87
2023/01/26 05:06:16;;;;;;;6.03;1.38;;;;;;;7.36;100.00;100587.88;5077440;28;20097;-86
2023/01/26 05:08:41;;;;;;;4.22;1.40;;;;;;;7.82;100.00;100593.41;5077341;28;20024;-87
2023/01/26 05:11:07;;;;;;;8.52;1.60;;;;;;;7.37;100.00;100574.69;5094327;28;20020;-88
2023/01/26 05:13:34;;;;;;;10.68;2.58;;;;;;;7.29;100.00;100593.63;5095442;28;20044;-84
2023/01/26 05:16:01;;;;;;;6.30;1.30;;;;;;;7.47;100.00;100590.38;5093724;28;20036;-84
2023/01/26 05:18:29;;;;;;;11.60;1.55;;;;;;;7.14;100.00;100580.13;5093862;28;20070;-87
2023/01/26 05:20:55;;;;;;;8.38;1.83;;;;;;;7.35;100.00;100604.50;5095032;28;20024;-86
2023/01/26 05:23:21;;;;;;;6.70;1.50;;;;;;;7.37;100.00;100571.22;5094032;28;20106;-86
2023/01/26 05:25:47;;;;;;;5.13;1.27;;;;;;;7.48;100.00;100578.13;5093371;28;20036;-87
2023/01/26 05:28:13;;;;;;;8.15;1.38;;;;;;;7.35;100.00;100573.97;5093717;28;20042;-84
2023/01/26 05:30:41;;;;;;;7.82;1.75;;;;;;;7.78;100.00;100590.22;5094830;28;20046;-86
2023/01/26 05:33:09;;;;;;;3.95;1.50;;;;;;;7.80;100.00;100588.31;5093890;28;20031;-86
2023/01/26 05:35:38;;;;;;;7.00;1.60;;;;;;;7.70;100.00;100597.94;5093065;28;20066;-87
2023/01/26 05:38:04;;;;;;;5.40;1.30;;;;;;;7.97;100.00;100593.81;5094307;28;20507;-86
2023/01/26 05:40:29;;;;;;;5.15;2.33;;;;;;;7.38;100.00;100588.56;5095368;28;20036;-86
2023/01/26 05:42:55;;;;;;;6.57;1.70;;;;;;;7.58;100.00;100598.06;5094131;28;20039;-87
2023/01/26 05:45:20;;;;;;;4.57;1.30;;;;;;;7.55;100.00;100585.28;5093571;28;20031;-84
2023/01/26 05:47:47;;;;;;;4.72;1.50;;;;;;;7.98;100.00;100611.16;5094948;28;20043;-85
2023/01/26 05:50:13;;;;;;;6.07;2.17;;;;;;;8.22;100.00;100612.50;5094845;28;20031;-87
2023/01/26 05:52:41;;;;;;;5.40;1.42;;;;;;;7.66;100.00;100607.00;5093558;28;20032;-87
2023/01/26 05:55:07;;;;;;;5.43;1.67;;;;;;;7.54;100.00;100596.69;5094725;28;20036;-87
2023/01/26 05:57:33;;;;;;;6.00;1.40;;;;;;;7.78;100.00;100600.69;5094827;28;20032;-87
2023/01/26 05:59:58;;;;;;;4.57;1.23;;;;;;;7.92;100.00;100615.13;5093141;28;20051;-86
2023/01/26 06:02:26;;;;;;;7.53;1.45;;;;;;;7.58;100.00;100607.72;5094708;28;20046;-83
2023/01/26 06:04:52;;;;;;;8.45;1.95;;;;;;;7.75;100.00;100605.34;5093181;28;20032;-85
2023/01/26 06:07:18;;;;;;;3.90;1.60;;;;;;;7.75;100.00;100640.19;5094237;28;20032;-85
2023/01/26 06:09:46;;;;;;;7.30;1.40;;;;;;;7.44;100.00;100619.34;5094071;28;20493;-82
2023/01/26 06:12:15;;;;;;;11.70;2.13;;;;;;;7.60;100.00;100646.75;5094024;28;20028;-82
2023/01/26 06:14:41;;;;;;;9.40;1.83;;;;;;;7.58;100.00;100626.00;5093848;28;20119;-82
2023/01/26 06:17:06;;;;;;;6.65;1.52;;;;;;;7.62;100.00;100622.16;5092260;28;20116;-83
2023/01/26 06:19:32;;;;;;;5.88;1.85;;;;;;;7.68;100.00;100626.81;5093422;28;20031;-85
2023/01/26 06:21:58;;;;;;;6.15;1.85;;;;;;;8.00;100.00;100645.81;5075207;28;20446;-84
2023/01/26 06:24:23;;;;;;;9.98;1.80;;;;;;;7.57;100.00;100630.38;5092337;28;20028;-84
2023/01/26 06:26:49;;;;;;;4.47;1.42;;;;;;;7.81;100.00;100642.25;5091902;28;20067;-84
2023/01/26 06:29:15;;;;;;;5.03;1.58;;;;;;;7.61;100.00;100615.28;5093418;28;20138;-85
2023/01/26 06:31:41;;;;;;;6.80;1.50;;;;;;;7.95;100.00;100619.28;5092623;28;20378;-82
2023/01/26 06:34:07;;;;;;;6.88;1.75;;;;;;;7.84;100.00;100641.97;5093905;28;20489;-83
2023/01/26 06:36:33;;;;;;;9.93;1.70;;;;;;;7.70;100.00;100629.31;5093943;28;20093;-84
2023/01/26 06:38:59;;;;;;;7.75;1.60;;;;;;;7.85;100.00;100634.97;5093192;28;20497;-84
2023/01/26 06:41:25;;;;;;;8.65;1.80;;;;;;;7.44;100.00;100637.66;5075587;28;20016;-83
2023/01/26 06:43:51;;;;;;;7.00;2.00;;;;;;;7.58;100.00;100647.72;5092719;28;20515;-81
2023/01/26 06:46:20;;;;;;;6.18;1.58;;;;;;;7.79;100.00;100638.94;5093452;28;20031;-81
2023/01/26 06:48:46;;;;;;;9.77;2.50;;;;;;;7.40;100.00;100644.09;5071782;28;20078;-85
2023/01/26 06:51:15;;;;;;;3.47;1.30;;;;;;;7.63;100.00;100649.09;5092993;28;20020;-83
2023/01/26 06:53:51;;;;;;;7.70;1.80;;;;;;;7.79;100.00;100649.38;5092676;28;20028;-84
2023/01/26 06:56:17;;;;;;;11.05;1.77;;;;;;;7.77;100.00;100651.31;5089015;28;20406;-85
2023/01/26 06:58:43;;;;;;;7.70;1.65;;;;;;;7.72;100.00;100649.09;5092489;28;20043;-83
2023/01/26 07:01:25;;;;;;;14.50;2.00;;;;;;;7.96;100.00;100644.44;5091350;28;20032;-84
2023/01/26 07:03:52;;;;;;;7.22;1.80;;;;;;;7.90;100.00;100653.66;5089130;28;20412;-79
2023/01/26 07:06:18;;;;;;;8.35;2.38;;;;;;;7.86;100.00;100650.53;5086089;28;20034;-79
2023/01/26 07:08:47;;;;;;;8.07;1.60;;;;;;;7.58;100.00;100647.72;5087634;28;20035;-80
2023/01/26 07:11:15;;;;;;;8.32;2.20;;;;;;;7.81;100.00;100652.69;5090526;28;20043;-81
2023/01/26 07:13:41;;;;;;;9.45;1.80;;;;;;;7.72;100.00;100632.63;5086661;28;20032;-79
2023/01/26 07:16:10;;;;;;;7.68;1.80;;;;;;;7.83;100.00;100655.19;5087575;28;20032;-80
2023/01/26 07:18:36;;;;;;;11.23;2.83;;;;;;;7.80;100.00;100656.28;5088162;28;20031;-80
2023/01/26 07:21:12;;;;;;;12.55;1.80;;;;;;;7.88;100.00;100652.97;5088792;28;20032;-81
2023/01/26 07:23:38;;;;;;;7.70;2.25;;;;;;;7.88;100.00;100652.16;5090522;28;20375;-80
2023/01/26 07:26:04;;;;;;;9.50;1.88;;;;;;;7.84;100.00;100657.66;5090660;28;20031;-81
2023/01/26 07:28:30;;;;;;;7.57;2.13;;;;;;;7.76;100.00;100656.66;5090382;28;20031;-80
2023/01/26 07:30:59;;;;;;;10.73;1.80;;;;;;;7.94;100.00;100660.25;5091018;28;20016;-80
2023/01/26 07:33:25;;;;;;;7.55;1.67;;;;;;;8.11;100.00;100664.00;5090944;28;20335;-81
2023/01/26 07:35:55;;;;;;;5.55;2.03;;;;;;;7.94;100.00;100664.69;5089649;28;20024;-80
2023/01/26 07:38:21;;;;;;;11.75;2.35;;;;;;;7.93;100.00;100670.88;5090689;28;20525;-79
2023/01/26 07:40:47;;;;;;;6.22;1.98;;;;;;;7.89;100.00;100672.13;5090022;28;20024;-81
2023/01/26 07:43:14;;;;;;;14.60;2.92;;;;;;;7.97;100.00;100677.47;5089554;28;20052;-83
2023/01/26 07:45:43;;;;;;;11.70;2.13;;;;;;;7.96;100.00;100681.06;5088010;28;20377;-82
2023/01/26 07:48:09;;;;;;;12.85;2.45;;;;;;;7.89;100.00;100682.56;5086038;28;20020;-81
2023/01/26 07:50:35;;;;;;;12.65;2.67;;;;;;;8.14;100.00;100692.50;5090365;28;20039;-82
2023/01/26 07:53:01;;;;;;;7.47;2.08;;;;;;;8.25;100.00;100695.91;5088194;28;20051;-83
2023/01/26 07:55:27;;;;;;;10.38;1.95;;;;;;;7.88;100.00;100699.22;5091554;28;20035;-82
2023/01/26 07:57:53;;;;;;;13.65;2.20;;;;;;;7.96;100.00;100707.22;5091455;28;20027;-81
2023/01/26 08:00:19;;;;;;;10.32;2.47;;;;;;;7.90;100.00;100694.69;5090041;28;20492;-79
2023/01/26 08:02:49;;;;;;;11.57;1.98;;;;;;;7.98;100.00;100689.59;5089116;28;20085;-83
2023/01/26 08:05:14;;;;;;;8.98;2.15;;;;;;;8.20;100.00;100708.59;5090981;28;20035;-83
2023/01/26 08:07:42;;;;;;;12.45;2.10;;;;;;;7.65;100.00;100696.81;5094945;28;20016;-85
2023/01/26 08:10:09;;;;;;;10.35;2.60;;;;;;;8.06;100.00;100708.06;5074656;28;20482;-83
2023/01/26 08:12:35;;;;;;;8.57;2.20;;;;;;;7.92;100.00;100688.34;5071269;28;20028;-82
2023/01/26 08:15:02;;;;;;;8.43;2.20;;;;;;;8.05;100.00;100705.56;5090487;28;20027;-84
2023/01/26 08:17:29;;;;;;;13.25;2.90;;;;;;;8.44;100.00;100706.38;5090271;28;20032;-82
2023/01/26 08:19:55;;;;;;;9.57;2.42;;;;;;;7.71;100.00;100701.53;5091781;28;20159;-82
2023/01/26 08:22:21;;;;;;;8.00;2.60;;;;;;;8.11;100.00;100713.69;5088908;28;20031;-83
2023/01/26 08:24:49;;;;;;;11.18;2.38;;;;;;;7.89;100.00;100686.00;5090961;28;20400;-82
2023/01/26 08:27:16;;;;;;;13.93;2.63;;;;;;;8.10;100.00;100713.81;5093008;28;20103;-82
2023/01/26 08:29:41;;;;;;;10.20;2.20;;;;;;;7.90;100.00;100690.28;5097449;28;20058;-81
2023/01/26 08:32:08;;;;;;;19.02;2.60;;;;;;;7.91;100.00;100719.88;5096158;28;20028;-80
2023/01/26 08:34:34;;;;;;;8.90;2.38;;;;;;;7.87;100.00;100708.84;5094359;28;20046;-79
2023/01/26 08:37:00;;;;;;;18.08;2.30;;;;;;;8.18;100.00;100716.59;5095357;28;20020;-82
2023/01/26 08:39:26;;;;;;;12.77;2.60;;;;;;;8.00;100.00;100719.03;5096346;28;20055;-82
2023/01/26 08:41:52;;;;;;;13.52;2.88;;;;;;;7.91;100.00;100712.03;5074355;28;20071;-81
2023/01/26 08:44:18;;;;;;;19.23;2.95;;;;;;;7.98;100.00;100702.66;5091437;28;20115;-81
2023/01/26 08:46:44;;;;;;;13.82;2.95;;;;;;;7.90;100.00;100699.91;5094093;28;20467;-81
2023/01/26 08:49:09;;;;;;;16.02;2.92;;;;;;;7.83;100.00;100713.50;5096159;28;20043;-81
2023/01/26 08:51:35;;;;;;;9.70;2.03;;;;;;;8.07;100.00;100712.31;5094811;28;20032;-80
2023/01/26 08:54:07;;;;;;;17.38;2.55;;;;;;;8.12;100.00;100732.81;5095979;28;20028;-80
2023/01/26 08:56:33;;;;;;;8.65;2.20;;;;;;;8.12;100.00;100712.72;5094550;28;20028;-80
2023/01/26 08:58:59;;;;;;;11.30;1.98;;;;;;;7.92;100.00;100726.75;5077423;28;20048;-81
2023/01/26 09:01:24;;;;;;;13.25;2.72;;;;;;;7.96;100.00;100733.34;5094459;28;20036;-81
2023/01/26 09:03:51;;;;;;;13.63;3.63;;;;;;;8.38;100.00;100740.94;5094337;28;20028;-81
2023/01/26 09:06:18;;;;;;;10.35;2.92;;;;;;;8.30;100.00;100732.97;5095906;28;20039;-86
2023/01/26 09:08:44;;;;;;;14.57;3.45;;;;;;;7.89;100.00;100716.56;5095452;28;20043;-81
2023/01/26 09:11:11;;;;;;;13.65;2.60;;;;;;;8.07;100.00;100709.72;5095329;28;20055;-81
2023/01/26 09:13:37;;;;;;;11.18;2.65;;;;;;;8.24;100.00;100729.13;5095112;28;20024;-81
2023/01/26 09:16:11;;;;;;;15.00;3.65;;;;;;;8.40;100.00;100722.50;5095021;28;20036;-80
2023/01/26 09:18:36;;;;;;;;;;;;;;;8.50;100.00;100740.84;5094467;28;20485;-81
2023/01/26 09:21:07;;;;;;;19.58;3.13;;;;;;;8.17;100.00;100709.72;5093793;28;19966;-80
2023/01/26 09:23:34;;;;;;;7.30;2.55;;;;;;;8.37;100.00;100739.31;5094161;28;20076;-81
2023/01/26 09:26:01;;;;;;;7.60;2.63;;;;;;;8.41;100.00;100742.47;5093740;28;20027;-80
2023/01/26 09:28:27;;;;;;;17.98;2.60;;;;;;;8.06;100.00;100749.91;5094923;28;20536;-83
2023/01/26 09:30:53;;;;;;;14.30;2.72;;;;;;;8.21;100.00;100731.16;5094022;28;20031;-81
2023/01/26 09:33:20;;;;;;;14.00;3.08;;;;;;;8.14;100.00;100760.50;5092362;28;20028;-85
2023/01/26 09:35:46;;;;;;;22.45;2.97;;;;;;;8.23;100.00;100753.63;5093741;28;20039;-81
2023/01/26 09:38:13;;;;;;;15.35;3.28;;;;;;;8.18;100.00;100747.16;5091765;28;20035;-83
2023/01/26 09:40:55;;;;;;;14.80;2.85;;;;;;;8.34;100.00;100752.66;5091725;28;20483;-82
2023/01/26 09:43:33;;;;;;;9.95;2.53;;;;;;;8.60;100.00;100749.50;5092465;28;20481;-79
2023/01/26 09:46:04;;;;;;;13.57;2.40;;;;;;;8.10;100.00;100748.66;5091852;28;20036;-79
2023/01/26 09:48:33;;;;;;;11.40;2.22;;;;;;;8.35;100.00;100758.72;5093635;28;20035;-79
2023/01/26 09:51:18;;;;;;;9.98;2.78;;;;;;;8.85;100.00;100750.72;5093461;28;20221;-80
2023/01/26 09:53:51;;;;;;;12.07;2.40;;;;;;;8.56;100.00;100761.22;5093314;28;20350;-85
2023/01/26 09:56:20;;;;;;;11.63;2.45;;;;;;;8.73;100.00;100767.53;5093624;28;20032;-85
2023/01/26 09:58:55;;;;;;;23.63;3.05;;;;;;;8.84;100.00;100777.03;5092692;28;20387;-84
2023/01/26 10:01:29;;;;;;;13.18;2.80;;;;;;;8.86;100.00;100783.00;5093557;28;20465;-84
2023/01/26 10:03:57;;;;;;;7.70;2.25;;;;;;;8.64;100.00;100779.69;5092782;28;20179;-85
2023/01/26 10:06:30;;;;;;;17.08;3.50;;;;;;;8.56;100.00;100777.78;5091080;28;20040;-85
2023/01/26 10:09:01;;;;;;;10.88;2.60;;;;;;;8.79;100.00;100782.72;5091093;28;20121;-83
2023/01/26 10:11:49;;;;;;;15.40;2.75;;;;;;;8.40;100.00;100780.88;5072971;28;20425;-83
2023/01/26 10:14:29;;;;;;;16.27;3.40;;;;;;;8.38;100.00;100774.97;5092177;28;20418;-83
2023/01/26 10:16:57;;;;;;;15.75;3.03;;;;;;;8.75;100.00;100754.31;5091125;28;20028;-83
2023/01/26 10:19:41;;;;;;;21.85;2.83;;;;;;;9.01;100.00;100775.50;5092384;28;20409;-83
2023/01/26 10:22:21;;;;;;;14.77;2.90;;;;;;;8.17;100.00;100762.03;5088767;28;20035;-83
2023/01/26 10:24:56;;;;;;;11.43;2.92;;;;;;;8.23;100.00;100771.09;5091943;28;20373;-83
2023/01/26 10:27:22;;;;;;;16.10;3.15;;;;;;;8.06;100.00;100796.97;5073357;28;20028;-84
2023/01/26 10:29:47;;;;;;;10.15;2.78;;;;;;;7.92;100.00;100787.69;5073531;28;20051;-82
2023/01/26 10:32:16;;;;;;;17.58;2.88;;;;;;;7.94;100.00;100784.97;5092797;28;20385;-84
2023/01/26 10:34:42;;;;;;;13.30;2.88;;;;;;;8.51;100.00;100800.09;5094071;28;20039;-86
2023/01/26 10:37:28;;;;;;;12.48;2.72;;;;;;;8.68;100.00;100799.41;5093036;28;20032;-87
2023/01/26 10:39:58;;;;;;;17.10;3.35;;;;;;;8.64;100.00;100787.53;5076454;28;20117;-85
2023/01/26 10:42:27;;;;;;;19.13;3.25;;;;;;;8.89;100.00;100811.50;5093412;28;20469;-87
2023/01/26 10:44:53;;;;;;;14.90;2.53;;;;;;;9.00;100.00;100793.00;5092406;28;20028;-86
2023/01/26 10:47:22;;;;;;;19.25;4.85;;;;;;;9.22;100.00;100793.66;5090473;28;20347;-83
2023/01/26 10:49:50;;;;;;;13.27;3.22;;;;;;;8.92;100.00;100800.75;5091494;28;20043;-86
2023/01/26 10:52:22;;;;;;;13.38;3.47;;;;;;;9.49;100.00;100809.56;5091290;28;20024;-85
2023/01/26 10:54:52;;;;;;;14.55;2.97;;;;;;;8.69;100.00;100810.69;5092797;28;20042;-85
2023/01/26 10:57:24;;;;;;;12.77;3.03;;;;;;;8.71;100.00;100813.97;5091531;28;20481;-85
2023/01/26 10:59:58;;;;;;;8.57;2.83;;;;;;;8.59;100.00;100815.91;5073137;28;20050;-84
2023/01/26 11:02:30;;;;;;;9.52;2.75;;;;;;;8.55;100.00;100811.94;5091544;28;20410;-84
2023/01/26 11:05:07;;;;;;;13.07;3.55;;;;;;;7.84;100.00;100830.19;5091579;28;20028;-84
2023/01/26 11:07:40;;;;;;;13.07;3.80;;;;;;;8.01;100.00;100814.84;5090567;28;20032;-84
2023/01/26 11:10:22;;;;;;;16.15;4.00;;;;;;;8.03;100.00;100818.16;5091184;28;20032;-82
2023/01/26 11:12:50;;;;;;;17.40;4.03;;;;;;;8.05;100.00;100825.88;5088414;28;20480;-83
2023/01/26 11:15:17;;;;;;;23.13;4.20;;;;;;;7.74;100.00;100823.28;5090490;28;20028;-84
2023/01/26 11:17:51;;;;;;;16.83;3.90;;;;;;;8.24;100.00;100810.22;5091945;28;20746;-84
2023/01/26 11:20:27;;;;;;;17.52;4.03;;;;;;;8.16;100.00;100807.47;5092222;28;20577;-84
2023/01/26 11:23:21;;;;;;;14.57;3.45;;;;;;;8.37;100.00;100782.97;5089603;28;20103;-82
2023/01/26 11:26:02;;;;;;;23.23;4.53;;;;;;;8.40;100.00;100817.53;5091997;28;20024;-82
2023/01/26 11:29:03;;;;;;;23.38;4.18;;;;;;;8.11;100.00;100812.25;5073106;28;20028;-82
2023/01/26 11:31:40;;;;;;;21.13;4.85;;;;;;;8.37;100.00;100799.47;5073642;28;20032;-81
2023/01/26 11:34:24;;;;;;;26.42;4.70;;;;;;;8.75;100.00;100809.31;5090371;28;20036;-81
2023/01/26 11:37:07;;;;;;;20.80;4.38;;;;;;;8.73;100.00;100809.44;5088116;28;20032;-82
2023/01/26 11:40:10;;;;;;;20.73;5.15;;;;;;;8.04;100.00;100814.56;5090018;28;20020;-82
2023/01/26 11:43:04;;;;;;;22.30;4.80;;;;;;;8.34;100.00;100805.00;5088428;28;20043;-82
2023/01/26 11:45:37;;;;;;;21.20;4.65;;;;;;;8.21;100.00;100804.41;5091257;28;20424;-82
2023/01/26 11:48:20;;;;;;;18.00;4.35;;;;;;;8.79;100.00;100808.91;5088722;28;20107;-82
2023/01/26 11:50:59;;;;;;;18.98;4.82;;;;;;;8.20;100.00;100810.63;5088230;28;20031;-82
2023/01/26 11:53:27;;;;;;;22.20;5.65;;;;;;;7.98;100.00;100804.66;5105082;28;20038;-81
2023/01/26 11:56:06;;;;;;;14.23;4.75;;;;;;;8.17;100.00;100805.66;5089950;28;20028;-81
2023/01/26 11:58:37;;;;;;;19.60;6.32;;;;;;;7.92;100.00;100792.94;5090691;28;20047;-83
2023/01/26 12:01:27;;;;;;;22.50;5.35;;;;;;;8.46;100.00;100804.88;5072817;28;20024;-83
2023/01/26 12:03:54;;;;;;;12.43;4.80;;;;;;;8.08;100.00;100802.91;5089790;28;20032;-82
2023/01/26 12:06:40;;;;;;;18.45;4.55;;;;;;;8.35;100.00;100805.81;5090513;28;20397;-82
2023/01/26 12:09:21;;;;;;;24.88;4.80;;;;;;;7.97;100.00;100801.22;5090207;28;20078;-84
2023/01/26 12:12:06;;;;;;;24.13;4.68;;;;;;;8.12;100.00;100796.44;5072798;28;20512;-84
2023/01/26 12:14:45;;;;;;;25.63;4.72;;;;;;;8.03;100.00;100783.34;5088561;28;20405;-82
2023/01/26 12:17:41;;;;;;;20.88;4.50;;;;;;;8.19;100.00;100785.41;5072155;28;20066;-82
2023/01/26 12:20:33;;;;;;;18.67;4.05;;;;;;;7.63;100.00;100780.59;5091054;28;20027;-82